ADDS METAR Data INFO
IDs: Format: Raw Decoded Include TAF

Data at: 0642 UTC 23 Feb 2018

KAXV 230635Z AUTO 11005KT 1 1/4SM -SN OVC002 03/03 A3033 RMK AO2
KAXV 230615Z AUTO 10004KT 1SM -SN OVC002 03/03 A3035 RMK AO2
KAXV 230555Z AUTO 09004KT 1 1/2SM BR OVC002 02/02 A3035 RMK AO2
KAXV 230535Z AUTO 09005KT 2SM BR OVC002 02/02 A3036 RMK AO2
KAXV 230515Z AUTO 08007KT 2SM BR OVC002 02/02 A3036 RMK AO2
KAXV 230455Z AUTO 08007KT 2SM BR OVC002 02/02 A3037 RMK AO2
KAXV 230435Z AUTO 07008KT 1 3/4SM -SN OVC002 02/02 A3038 RMK AO2
KAXV 230415Z AUTO 07004KT 1 3/4SM BR OVC002 02/02 A3040 RMK AO2
KAXV 230355Z AUTO 07005KT 2SM BR OVC004 02/02 A3042 RMK AO2
KAXV 230335Z AUTO 04007KT 3SM BR OVC004 02/02 A3042 RMK AO2
KAXV 230315Z AUTO 05005KT 5SM BR OVC004 02/02 A3042 RMK AO2
KAXV 230255Z AUTO 06008KT 5SM BR OVC004 02/02 A3041 RMK AO2
KAXV 230235Z AUTO 07007KT 5SM BR OVC004 02/02 A3041 RMK AO2
KAXV 230215Z AUTO 07006KT 5SM BR OVC004 02/02 A3040 RMK AO2
KAXV 230155Z AUTO 07009KT 5SM BR OVC004 02/02 A3040 RMK AO2
KAXV 230135Z AUTO 06008KT 5SM BR OVC004 02/02 A3040 RMK AO2
KAXV 230115Z AUTO 06008KT 5SM BR OVC004 02/02 A3042 RMK AO2
KAXV 230055Z AUTO 05008KT 5SM BR OVC004 03/03 A3044 RMK AO2
KAXV 230035Z AUTO 04010KT 5SM BR OVC004 03/03 A3043 RMK AO2
KAXV 230015Z AUTO 05009KT 7SM OVC004 03/03 A3043 RMK AO2
KAXV 222355Z AUTO 04009KT 7SM OVC006 03/03 A3043 RMK AO2
KAXV 222335Z AUTO 03008KT 7SM OVC006 04/04 A3042 RMK AO2
KAXV 222315Z AUTO 04010KT 5SM BR OVC006 05/05 A3040 RMK AO2
KAXV 222255Z AUTO 05008KT 5SM BR OVC006 05/05 A3040 RMK AO2
KAXV 222235Z AUTO 04007KT 5SM BR OVC006 05/05 A3040 RMK AO2
KAXV 222215Z AUTO 06011KT 7SM BKN006 OVC019 05/05 A3040 RMK AO2
KAXV 222155Z AUTO 06009KT 7SM SCT008 OVC016 06/06 A3042 RMK AO2
KAXV 222135Z AUTO 04011G14KT 7SM OVC016 07/06 A3042 RMK AO2
KAXV 222115Z AUTO 07010KT 10SM BKN016 OVC046 07/07 A3043 RMK AO2
KAXV 222055Z AUTO 07011G15KT 10SM OVC016 08/07 A3043 RMK AO2
KAXV 222035Z AUTO 06009G17KT 10SM OVC014 07/07 A3044 RMK AO2
KAXV 222015Z AUTO 07010KT 10SM OVC014 07/07 A3045 RMK AO2
KAXV 221955Z AUTO 07011KT 10SM OVC014 07/07 A3044 RMK AO2
KAXV 221935Z AUTO 06012G17KT 10SM OVC014 07/07 A3044 RMK AO2
KAXV 221915Z AUTO 06012G18KT 10SM BKN014 OVC043 07/07 A3045 RMK AO2
KAXV 221855Z AUTO 06013KT 10SM BKN014 OVC043 07/07 A3045 RMK AO2
KAXV 221835Z AUTO 07012G17KT 7SM SCT012 OVC043 06/06 A3046 RMK AO2
KAXV 221815Z AUTO 06012G18KT 7SM BKN010 OVC045 06/06 A3046 RMK AO2
KAXV 221755Z AUTO 07014KT 10SM BKN010 OVC045 05/05 A3046 RMK AO2
KAXV 221735Z AUTO 07009KT 10SM OVC008 04/04 A3049 RMK AO2
KAXV 221715Z AUTO 05011G17KT 10SM OVC006 03/03 A3051 RMK AO2
KAXV 221655Z AUTO 05011KT 7SM OVC006 03/03 A3052 RMK AO2
KAXV 221635Z AUTO 06010KT 7SM -RA BKN008 BKN015 OVC035 02/02 A3053 RMK AO2
KAXV 221615Z AUTO 04009KT 7SM -RA BKN008 BKN014 OVC035 02/02 A3054 RMK AO2
KAXV 221555Z AUTO 03011G15KT 10SM -DZ OVC006 01/01 A3055 RMK AO2
KAXV 221535Z AUTO 04011KT 7SM OVC006 01/01 A3053 RMK AO2
KAXV 221515Z AUTO 03011G14KT 5SM BR OVC006 01/01 A3054 RMK AO2
KAXV 221455Z AUTO 02010KT 4SM UP OVC006 01/01 A3053 RMK AO2
KAXV 221435Z AUTO 36009KT 5SM -RA OVC010 01/01 A3053 RMK AO2
KAXV 221415Z AUTO 34013KT 10SM OVC010 01/01 A3054 RMK AO2
KAXV 221355Z AUTO 35009KT 10SM OVC010 01/01 A3051 RMK AO2
KAXV 221335Z AUTO 04008G17KT 10SM BKN010 BKN014 01/01 A3044 RMK AO2
KAXV 221315Z AUTO 07014G23KT 10SM BKN008 BKN048 01/01 A3039 RMK AO2
KAXV 221255Z AUTO 07014G19KT 10SM UP BKN008 BKN028 BKN041 00/00 A3040 RMK AO2
KAXV 221235Z AUTO 07013G21KT 7SM UP BKN008 OVC042 00/00 A3042 RMK AO2
KAXV 221215Z AUTO 06008KT 7SM UP OVC008 01/01 A3047 RMK AO2
KAXV 221155Z AUTO 04009KT 10SM UP OVC008 01/01 A3048 RMK AO2
KAXV 221135Z AUTO 03009G14KT 7SM UP OVC008 01/01 A3047 RMK AO2
KAXV 221115Z AUTO 04010G16KT 7SM UP OVC008 01/01 A3047 RMK AO2
KAXV 221055Z AUTO 04011KT 7SM UP OVC008 01/01 A3046 RMK AO2
KAXV 221035Z AUTO 04011G15KT 7SM UP OVC008 01/01 A3046 RMK AO2
KAXV 221015Z AUTO 04009KT 7SM UP OVC008 01/01 A3046 RMK AO2
KAXV 220955Z AUTO 05009KT 7SM UP OVC008 01/01 A3046 RMK AO2
KAXV 220935Z AUTO 05010KT 7SM UP BKN008 BKN012 OVC039 01/01 A3047 RMK AO2
KAXV 220915Z AUTO 05010KT 7SM UP OVC008 01/01 A3047 RMK AO2
KAXV 220855Z AUTO 05008KT 7SM UP OVC008 01/01 A3048 RMK AO2
KAXV 220835Z AUTO 04008KT 7SM UP BKN008 BKN014 OVC047 01/01 A3049 RMK AO2
KAXV 220815Z AUTO 05008KT 7SM UP SCT010 SCT014 OVC048 01/01 A3050 RMK AO2
KAXV 220755Z AUTO 05010KT 10SM UP SCT010 OVC048 01/01 A3050 RMK AO2
KAXV 220735Z AUTO 04008KT 10SM -RA SCT010 BKN050 OVC060 01/01 A3052 RMK AO2
KAXV 220715Z AUTO 04008KT 10SM -RA OVC050 01/01 A3053 RMK AO2
KAXV 220655Z AUTO 03007KT 10SM -RA OVC048 02/02 A3054 RMK AO2
KAXV 220635Z AUTO 05007KT 10SM -RA OVC050 02/02 A3053 RMK AO2
KAXV 220615Z AUTO 07009G15KT 10SM -RA OVC050 02/02 A3052 RMK AO2
KAXV 220555Z AUTO 07008KT 10SM -DZ SCT041 BKN050 OVC060 02/02 A3053 RMK AO2
KAXV 220535Z AUTO 06009KT 7SM -DZ BKN041 OVC050 02/02 A3053 RMK AO2
KAXV 220515Z AUTO 07009KT 10SM -RA OVC041 02/02 A3054 RMK AO2
KAXV 220455Z AUTO 06009G16KT 7SM -RA OVC039 02/02 A3055 RMK AO2
KAXV 220435Z AUTO 04010G17KT 10SM -DZ SCT009 BKN039 OVC050 02/02 A3055 RMK AO2
KAXV 220415Z AUTO 03009G14KT 10SM DZ BKN011 OVC039 02/02 A3056 RMK AO2
KAXV 220355Z AUTO 03012KT 10SM RA SCT008 BKN011 OVC039 02/02 A3056 RMK AO2
KAXV 220035Z AUTO 04010KT 10SM OVC009 04/04 A3055 RMK AO2
KAXV 220015Z AUTO 02008KT 10SM OVC009 04/04 A3054 RMK AO2
KAXV 212355Z AUTO 04008KT 10SM OVC011 04/04 A3052 RMK AO2
KAXV 212335Z AUTO 03007KT 10SM OVC011 04/04 A3052 RMK AO2
KAXV 212315Z AUTO 04009KT 10SM -DZ OVC011 04/04 A3050 RMK AO2
KAXV 212255Z AUTO 02008KT 10SM OVC011 04/04 A3050 RMK AO2
KAXV 212235Z AUTO 36011KT 10SM OVC011 04/04 A3050 RMK AO2
KAXV 212215Z AUTO 36009KT 10SM OVC011 04/04 A3049 RMK AO2
KAXV 212155Z AUTO 02008KT 10SM BKN011 OVC037 03/03 A3047 RMK AO2
KAXV 212135Z AUTO 01008KT 10SM -DZ OVC009 04/04 A3048 RMK AO2
KAXV 212115Z AUTO 36009KT 10SM -RA OVC009 03/03 A3048 RMK AO2
KAXV 212055Z AUTO 01008KT 10SM -RA OVC009 04/04 A3047 RMK AO2
KAXV 212035Z AUTO 36009KT 10SM -RA OVC009 04/04 A3048 RMK AO2
KAXV 212015Z AUTO 36007KT 10SM DZ OVC009 04/04 A3048 RMK AO2
KAXV 211955Z AUTO 36011KT 10SM -DZ OVC007 03/03 A3046 RMK AO2
KAXV 211935Z AUTO 35009KT 10SM OVC009 04/04 A3046 RMK AO2
KAXV 211915Z AUTO 35010KT 10SM -DZ OVC009 04/04 A3045 RMK AO2
KAXV 211855Z AUTO 35009KT 10SM -RA OVC009 03/03 A3045 RMK AO2